Time;durP1;ratioP1;P1;durP2;ratioP2;P2;SDS_P1;SDS_P2;PMS_P1;PMS_P2;Temp;Humidity;BMP_temperature;BMP_pressure;BME280_temperature;BME280_humidity;BME280_pressure;Samples;Min_cycle;Max_cycle;Signal;HPM_P1;HPM_P2
2022/12/08 00:01:08;;;;;;;30.35;17.60;;;12.80;99.90;;;;;;5050270;28;20713;-72
2022/12/08 00:03:34;;;;;;;27.13;16.95;;;12.80;99.90;;;;;;5051880;28;20033;-72
2022/12/08 00:11:30;;;;;;;28.67;15.65;;;12.80;99.90;;;;;;5035605;28;20056;-72
2022/12/08 00:13:56;;;;;;;25.92;14.70;;;12.80;99.90;;;;;;5029775;28;20038;-72
2022/12/08 00:16:22;;;;;;;28.60;15.70;;;12.70;99.90;;;;;;5048563;28;20110;-72
2022/12/08 00:18:48;;;;;;;26.08;14.45;;;12.70;99.90;;;;;;5031100;28;20042;-72
2022/12/08 00:21:14;;;;;;;25.23;14.15;;;12.70;99.90;;;;;;5031162;28;20103;-72
2022/12/08 00:23:39;;;;;;;24.88;14.30;;;12.60;99.90;;;;;;5031795;28;20300;-72
2022/12/08 00:26:06;;;;;;;25.35;14.25;;;12.60;99.90;;;;;;5022146;28;20045;-72
2022/12/08 00:28:33;;;;;;;27.35;14.88;;;12.60;99.90;;;;;;5034724;28;20060;-72
2022/12/08 00:31:05;;;;;;;24.67;14.52;;;12.60;99.90;;;;;;5037392;28;20599;-71
2022/12/08 00:33:31;;;;;;;27.85;13.25;;;12.60;99.90;;;;;;5040385;28;20435;-72
2022/12/08 00:35:57;;;;;;;24.20;13.55;;;12.50;99.90;;;;;;5031600;28;20044;-71
2022/12/08 00:38:23;;;;;;;30.13;15.35;;;12.60;99.90;;;;;;5035013;28;20527;-71
2022/12/08 00:40:49;;;;;;;26.40;14.95;;;12.50;99.90;;;;;;5039691;28;20029;-71
2022/12/08 00:43:14;;;;;;;30.88;15.15;;;12.50;99.90;;;;;;5035903;28;20040;-72
2022/12/08 00:45:41;;;;;;;26.50;14.95;;;12.50;99.90;;;;;;5037080;28;20476;-71
2022/12/08 00:48:07;;;;;;;28.67;15.48;;;12.40;99.90;;;;;;5036004;28;20048;-71
2022/12/08 00:50:33;;;;;;;26.67;15.18;;;12.50;99.90;;;;;;5036334;28;20476;-71
2022/12/08 00:52:58;;;;;;;26.30;14.50;;;12.50;99.90;;;;;;5036095;28;20037;-72
2022/12/08 00:55:24;;;;;;;27.17;15.30;;;12.50;99.90;;;;;;5036634;28;20172;-71
2022/12/08 00:57:50;;;;;;;26.90;15.75;;;12.50;99.90;;;;;;5032199;28;20041;-72
2022/12/08 01:00:16;;;;;;;24.15;13.70;;;12.50;99.90;;;;;;5019813;28;20472;-72
2022/12/08 01:02:42;;;;;;;25.58;14.05;;;12.50;99.90;;;;;;5037465;28;20040;-72
2022/12/08 01:05:08;;;;;;;25.35;14.18;;;12.50;99.90;;;;;;5037331;28;20090;-71
2022/12/08 01:07:34;;;;;;;25.73;14.75;;;12.50;99.90;;;;;;5034043;28;20044;-71
2022/12/08 01:10:00;;;;;;;27.75;15.40;;;12.50;99.90;;;;;;5035254;28;20041;-72
2022/12/08 01:12:29;;;;;;;28.60;15.95;;;12.50;99.90;;;;;;5026530;28;20689;-72
2022/12/08 01:14:55;;;;;;;27.05;14.20;;;12.50;99.90;;;;;;5047866;28;20465;-72
2022/12/08 01:17:21;;;;;;;26.05;14.15;;;12.40;99.90;;;;;;5037624;28;20473;-72
2022/12/08 01:19:47;;;;;;;28.90;16.30;;;12.40;99.90;;;;;;5060152;28;20040;-72
2022/12/08 01:22:13;;;;;;;22.88;13.57;;;12.30;99.90;;;;;;5055056;28;20036;-72
2022/12/08 01:24:39;;;;;;;24.60;14.70;;;12.30;99.90;;;;;;5055978;28;20037;-71
2022/12/08 01:27:05;;;;;;;29.23;14.80;;;12.30;99.90;;;;;;5070546;28;20051;-71
2022/12/08 01:29:31;;;;;;;25.90;14.35;;;12.20;99.90;;;;;;5057039;28;20029;-71
2022/12/08 01:31:57;;;;;;;26.90;14.85;;;12.20;99.90;;;;;;5058465;28;20044;-71
2022/12/08 01:34:24;;;;;;;25.25;14.35;;;12.20;99.90;;;;;;5061908;28;20036;-71
2022/12/08 01:36:51;;;;;;;24.45;14.25;;;12.20;99.90;;;;;;5057291;28;20036;-72
2022/12/08 01:39:18;;;;;;;;;;;12.10;99.90;;;;;;5054334;28;20049;-72
2022/12/08 01:41:46;;;;;;;25.73;13.73;;;12.10;99.90;;;;;;5059085;28;20391;-72
2022/12/08 01:44:12;;;;;;;25.38;14.18;;;12.10;99.90;;;;;;5063253;28;20033;-71
2022/12/08 01:46:42;;;;;;;25.60;14.88;;;12.10;99.90;;;;;;5061803;28;20037;-72
2022/12/08 01:49:14;;;;;;;27.65;15.43;;;12.10;99.90;;;;;;5055850;28;20045;-72
2022/12/08 01:52:13;;;;;;;27.33;15.60;;;12.10;99.90;;;;;;5057120;28;20036;-72
2022/12/08 01:54:52;;;;;;;26.00;14.52;;;12.10;99.90;;;;;;5061674;28;20147;-72
2022/12/08 01:57:24;;;;;;;24.33;14.40;;;12.10;99.90;;;;;;5056230;28;20089;-72
2022/12/08 01:59:57;;;;;;;29.35;14.50;;;12.10;99.90;;;;;;5056543;28;20545;-71
2022/12/08 02:02:25;;;;;;;;;;;12.10;99.90;;;;;;5056934;28;20037;-72
2022/12/08 02:04:51;;;;;;;25.85;12.43;;;12.10;99.90;;;;;;5056574;28;20531;-72
2022/12/08 02:07:17;;;;;;;27.30;13.77;;;12.10;99.90;;;;;;5066050;28;20471;-71
2022/12/08 02:09:44;;;;;;;23.75;12.80;;;12.10;99.90;;;;;;5056590;28;20465;-73
2022/12/08 02:12:10;;;;;;;27.88;15.65;;;12.00;99.90;;;;;;5058222;28;20725;-72
2022/12/08 02:14:36;;;;;;;24.85;14.02;;;12.00;99.90;;;;;;5059751;28;20036;-72
2022/12/08 02:17:06;;;;;;;24.77;13.93;;;12.00;99.90;;;;;;5065897;28;20040;-72
2022/12/08 02:19:53;;;;;;;25.60;13.77;;;12.00;99.90;;;;;;5057050;28;20586;-72
2022/12/08 02:23:06;;;;;;;26.00;15.02;;;12.00;99.90;;;;;;5057424;28;20033;-72
2022/12/08 02:25:51;;;;;;;23.55;14.35;;;12.00;99.90;;;;;;5056546;28;20056;-72
2022/12/08 02:28:40;;;;;;;26.42;14.05;;;12.00;99.90;;;;;;5052714;28;20039;-72
2022/12/08 02:31:17;;;;;;;23.23;13.23;;;11.90;99.90;;;;;;5056695;28;20052;-72
2022/12/08 02:34:02;;;;;;;26.27;12.57;;;11.90;99.90;;;;;;5058125;28;20400;-71
2022/12/08 02:36:56;;;;;;;25.98;14.88;;;12.00;99.90;;;;;;5051912;28;20033;-71
2022/12/08 02:39:26;;;;;;;21.70;13.20;;;12.00;99.90;;;;;;5057817;28;20043;-72
2022/12/08 02:41:55;;;;;;;23.42;12.90;;;12.00;99.90;;;;;;5055501;28;20393;-73
2022/12/08 02:44:23;;;;;;;27.02;13.82;;;12.00;99.90;;;;;;5056480;28;20045;-72
2022/12/08 02:46:56;;;;;;;24.92;14.68;;;12.10;99.90;;;;;;5072196;28;20032;-71
2022/12/08 02:49:36;;;;;;;22.05;13.75;;;12.00;99.90;;;;;;5054949;28;20067;-72
2022/12/08 02:52:05;;;;;;;23.77;13.93;;;12.00;99.90;;;;;;5056132;28;20037;-73
2022/12/08 02:54:32;;;;;;;23.63;14.35;;;12.00;99.90;;;;;;5070724;28;20060;-71
2022/12/08 02:57:17;;;;;;;24.48;13.30;;;12.00;99.90;;;;;;5066052;28;20037;-72
2022/12/08 03:00:06;;;;;;;24.83;13.93;;;12.00;99.90;;;;;;5056675;28;20149;-72
2022/12/08 03:02:47;;;;;;;25.27;13.60;;;12.00;99.90;;;;;;5049636;28;20160;-71
2022/12/08 03:05:22;;;;;;;22.08;12.82;;;11.90;99.90;;;;;;5074052;28;20045;-71
2022/12/08 03:08:20;;;;;;;25.20;14.82;;;12.00;99.90;;;;;;5059439;28;20037;-71
2022/12/08 03:10:55;;;;;;;28.08;13.93;;;12.00;99.90;;;;;;5056423;28;20492;-72
2022/12/08 03:13:28;;;;;;;24.75;12.63;;;12.00;99.90;;;;;;5056507;28;20054;-71
2022/12/08 03:15:55;;;;;;;27.33;13.25;;;12.00;99.90;;;;;;5057789;28;20503;-71
2022/12/08 03:18:27;;;;;;;24.60;12.43;;;12.00;99.90;;;;;;5056069;28;20048;-72
2022/12/08 03:20:53;;;;;;;25.17;13.50;;;12.10;99.90;;;;;;5055101;28;20056;-71
2022/12/08 03:23:20;;;;;;;22.48;13.55;;;12.10;99.90;;;;;;5052427;28;20478;-71
2022/12/08 03:26:03;;;;;;;23.55;13.10;;;12.10;99.90;;;;;;5069645;28;20029;-72
2022/12/08 03:28:29;;;;;;;25.27;14.43;;;12.10;99.90;;;;;;5060870;28;20046;-72
2022/12/08 03:30:58;;;;;;;25.08;14.55;;;12.10;99.90;;;;;;5051517;28;20033;-72
2022/12/08 03:33:29;;;;;;;26.10;15.00;;;12.10;99.90;;;;;;5052355;28;20037;-72
2022/12/08 03:35:58;;;;;;;28.70;14.68;;;12.20;99.90;;;;;;5052465;28;20112;-72
2022/12/08 03:38:23;;;;;;;25.70;14.05;;;12.20;99.90;;;;;;5055141;28;20082;-72
2022/12/08 03:43:34;;;;;;;24.52;13.18;;;12.20;99.90;;;;;;5037102;28;20523;-72
2022/12/08 03:46:00;;;;;;;23.63;14.25;;;12.20;99.90;;;;;;5039753;28;20037;-72
2022/12/08 03:48:26;;;;;;;23.50;13.52;;;12.20;99.90;;;;;;5032171;28;20164;-72
2022/12/08 03:50:52;;;;;;;24.08;13.75;;;12.20;99.90;;;;;;5033297;28;20140;-71
2022/12/08 03:53:18;;;;;;;25.55;13.40;;;12.20;99.90;;;;;;5037078;28;20037;-72
2022/12/08 03:55:44;;;;;;;22.02;13.30;;;12.20;99.90;;;;;;5037532;28;20034;-72
2022/12/08 03:58:10;;;;;;;23.42;12.85;;;12.20;99.90;;;;;;5037628;28;20029;-71
2022/12/08 04:00:36;;;;;;;22.95;12.88;;;12.20;99.90;;;;;;5035345;28;20114;-72
2022/12/08 04:03:03;;;;;;;23.63;12.82;;;12.10;99.90;;;;;;5036996;28;20540;-72
2022/12/08 04:05:29;;;;;;;;;;;12.10;99.90;;;;;;5050764;28;20481;-72
2022/12/08 04:07:58;;;;;;;23.17;13.75;;;12.10;99.90;;;;;;5058447;28;19912;-71
2022/12/08 04:10:25;;;;;;;24.70;13.68;;;12.00;99.90;;;;;;5054844;28;20040;-71
2022/12/08 04:12:51;;;;;;;25.45;13.90;;;12.00;99.90;;;;;;5067231;28;20381;-72
2022/12/08 04:15:18;;;;;;;26.23;14.38;;;12.00;99.90;;;;;;5049876;28;20040;-72
2022/12/08 04:17:44;;;;;;;26.45;14.73;;;11.90;99.90;;;;;;5070413;28;20119;-72
2022/12/08 04:20:10;;;;;;;28.85;15.05;;;11.90;99.90;;;;;;5055341;28;20108;-71
2022/12/08 04:22:37;;;;;;;23.45;14.50;;;11.80;99.90;;;;;;5058702;28;20162;-72
2022/12/08 04:25:03;;;;;;;26.77;15.05;;;11.80;99.90;;;;;;5053844;28;20051;-73
2022/12/08 04:27:29;;;;;;;28.27;14.45;;;11.70;99.90;;;;;;5051198;28;20025;-72
2022/12/08 04:29:55;;;;;;;26.33;13.80;;;11.60;99.90;;;;;;5059502;28;20408;-71
2022/12/08 04:32:20;;;;;;;24.50;14.23;;;11.70;99.90;;;;;;5067271;28;20534;-71
2022/12/08 04:34:46;;;;;;;22.38;12.68;;;11.70;99.90;;;;;;5054362;28;20037;-72
2022/12/08 04:37:12;;;;;;;26.45;14.75;;;11.70;99.90;;;;;;5054638;28;20118;-72
2022/12/08 04:39:38;;;;;;;25.08;12.48;;;11.70;99.90;;;;;;5054217;28;20373;-72
2022/12/08 04:42:04;;;;;;;27.15;14.77;;;11.60;99.90;;;;;;5051712;28;20043;-72
2022/12/08 04:44:30;;;;;;;24.10;14.25;;;11.60;99.90;;;;;;5058779;28;20041;-71
2022/12/08 04:46:59;;;;;;;27.52;16.27;;;11.50;99.90;;;;;;5054361;28;20121;-71
2022/12/08 04:49:25;;;;;;;27.08;15.52;;;11.50;99.90;;;;;;5059160;28;20116;-71
2022/12/08 04:51:50;;;;;;;27.65;14.55;;;11.50;99.90;;;;;;5073596;28;20413;-72
2022/12/08 04:54:16;;;;;;;25.67;15.02;;;11.40;99.90;;;;;;5072184;28;20456;-71
2022/12/08 04:56:42;;;;;;;29.02;15.63;;;11.40;99.90;;;;;;5055656;28;20496;-73
2022/12/08 04:59:08;;;;;;;27.42;15.77;;;11.40;99.90;;;;;;5058272;28;20124;-71
2022/12/08 05:01:34;;;;;;;29.40;15.95;;;11.50;99.90;;;;;;5054457;28;20040;-71
2022/12/08 05:04:00;;;;;;;25.02;14.95;;;11.40;99.90;;;;;;5073676;28;20120;-71
2022/12/08 05:06:26;;;;;;;27.80;15.60;;;11.40;99.90;;;;;;5054944;28;20029;-72
2022/12/08 05:08:51;;;;;;;27.58;15.93;;;11.40;99.90;;;;;;5060913;28;21822;-71
2022/12/08 05:11:18;;;;;;;26.67;15.52;;;11.30;99.90;;;;;;5056846;28;20040;-72
2022/12/08 05:13:44;;;;;;;27.08;15.27;;;11.20;99.90;;;;;;5060879;28;20116;-72
2022/12/08 05:16:12;;;;;;;24.80;15.45;;;11.20;99.90;;;;;;5054648;28;20112;-71
2022/12/08 05:18:39;;;;;;;28.08;15.68;;;11.10;99.90;;;;;;5052104;28;20894;-72
2022/12/08 05:21:05;;;;;;;29.40;16.55;;;11.00;99.90;;;;;;5056857;28;20029;-71
2022/12/08 05:23:31;;;;;;;28.42;16.95;;;10.90;99.90;;;;;;5064215;28;20029;-72
2022/12/08 05:25:58;;;;;;;29.63;16.45;;;10.90;99.90;;;;;;5054424;28;20083;-73
2022/12/08 05:28:24;;;;;;;26.90;16.88;;;10.90;99.90;;;;;;5072861;28;20040;-72
2022/12/08 05:30:50;;;;;;;27.42;14.80;;;10.90;99.90;;;;;;5057261;28;20366;-71
2022/12/08 05:33:16;;;;;;;29.00;17.00;;;11.00;99.90;;;;;;5058671;28;20106;-72
2022/12/08 05:35:42;;;;;;;29.88;17.95;;;11.00;99.90;;;;;;5057284;28;20032;-71
2022/12/08 05:38:09;;;;;;;27.45;16.70;;;11.10;99.90;;;;;;5054796;28;20036;-72
2022/12/08 05:40:40;;;;;;;31.08;17.33;;;11.20;99.90;;;;;;5057680;28;20048;-72
2022/12/08 05:43:06;;;;;;;28.73;16.50;;;11.30;99.90;;;;;;5061796;28;20036;-72
2022/12/08 05:45:32;;;;;;;30.23;16.48;;;11.40;99.90;;;;;;5070025;28;20032;-71
2022/12/08 05:47:58;;;;;;;31.10;17.42;;;11.40;99.90;;;;;;5072392;28;20039;-71
2022/12/08 05:50:24;;;;;;;30.55;15.35;;;11.50;99.90;;;;;;5057546;28;20454;-72
2022/12/08 05:52:50;;;;;;;34.08;19.00;;;11.50;99.90;;;;;;5056060;28;20127;-71
2022/12/08 05:55:16;;;;;;;33.58;17.83;;;11.50;99.90;;;;;;5055361;28;20124;-72
2022/12/08 05:57:41;;;;;;;30.95;17.42;;;11.50;99.90;;;;;;5056394;28;20044;-71
2022/12/08 06:00:08;;;;;;;31.10;16.27;;;11.60;99.90;;;;;;5057038;28;20442;-72
2022/12/08 06:02:35;;;;;;;30.73;18.02;;;11.60;99.90;;;;;;5062108;28;20028;-72
2022/12/08 06:05:01;;;;;;;;;;;11.70;99.90;;;;;;5063112;28;20056;-71
2022/12/08 06:07:27;;;;;;;33.20;18.45;;;11.70;99.90;;;;;;5063884;28;19975;-72
2022/12/08 06:09:52;;;;;;;30.27;17.60;;;11.80;99.90;;;;;;5060106;28;20063;-71
2022/12/08 06:12:20;;;;;;;29.42;18.00;;;11.90;99.90;;;;;;5059987;28;20036;-71
2022/12/08 06:14:45;;;;;;;;;;;11.90;99.90;;;;;;5069105;28;20048;-72
2022/12/08 06:17:11;;;;;;;33.15;19.00;;;12.00;99.90;;;;;;5060566;28;20445;-72
2022/12/08 06:19:37;;;;;;;31.40;18.45;;;12.10;99.90;;;;;;5056301;28;20041;-72
2022/12/08 06:22:03;;;;;;;32.50;18.75;;;12.10;99.90;;;;;;5051366;28;20104;-72
2022/12/08 06:24:29;;;;;;;34.58;18.58;;;12.20;99.90;;;;;;5060054;28;20572;-71
2022/12/08 06:26:55;;;;;;;30.88;17.50;;;12.20;99.90;;;;;;5060466;28;20052;-73
2022/12/08 06:29:21;;;;;;;30.33;17.48;;;12.30;99.90;;;;;;5057744;28;20530;-73
2022/12/08 06:31:46;;;;;;;34.70;18.20;;;12.30;99.90;;;;;;5057482;28;20037;-72
2022/12/08 06:34:12;;;;;;;29.52;17.95;;;12.40;99.90;;;;;;5060157;28;20025;-71
2022/12/08 06:36:38;;;;;;;35.25;17.67;;;12.30;99.90;;;;;;5052906;28;20115;-72
2022/12/08 06:39:04;;;;;;;32.72;18.23;;;12.40;99.90;;;;;;5050563;28;20034;-72
2022/12/08 06:41:31;;;;;;;31.50;18.95;;;12.40;99.90;;;;;;5060212;28;20054;-72
2022/12/08 06:43:57;;;;;;;;;;;12.40;99.90;;;;;;5052093;28;20139;-72
2022/12/08 06:46:23;;;;;;;30.50;17.45;;;12.40;99.90;;;;;;5055334;28;19952;-73
2022/12/08 06:48:50;;;;;;;33.70;18.17;;;12.40;99.90;;;;;;5060012;28;20033;-73
2022/12/08 06:51:17;;;;;;;;;;;12.40;99.90;;;;;;5057101;28;20066;-71
2022/12/08 06:53:44;;;;;;;27.90;16.23;;;12.40;99.90;;;;;;5043734;28;20375;-72
2022/12/08 06:56:10;;;;;;;;;;;12.40;99.90;;;;;;5052173;28;20399;-72
2022/12/08 06:58:37;;;;;;;33.58;16.95;;;12.40;99.90;;;;;;5053757;28;19921;-72
2022/12/08 07:01:07;;;;;;;32.58;17.73;;;12.40;99.90;;;;;;5058588;28;20029;-71
2022/12/08 07:03:34;;;;;;;33.00;18.35;;;12.40;99.90;;;;;;5056372;28;20143;-71
2022/12/08 07:06:00;;;;;;;31.27;18.33;;;12.50;99.90;;;;;;5060251;28;20096;-72
2022/12/08 07:08:26;;;;;;;32.35;18.63;;;12.50;99.90;;;;;;5054626;28;20027;-72
2022/12/08 07:10:51;;;;;;;29.77;17.75;;;12.50;99.90;;;;;;5053515;28;20033;-71
2022/12/08 07:13:17;;;;;;;40.10;19.40;;;12.50;99.90;;;;;;5060868;28;20032;-71
2022/12/08 07:15:43;;;;;;;32.38;18.27;;;12.50;99.90;;;;;;5069882;28;20047;-71
2022/12/08 07:18:09;;;;;;;33.00;18.27;;;12.50;99.90;;;;;;5055002;28;20037;-72
2022/12/08 07:20:35;;;;;;;34.00;18.85;;;12.50;99.90;;;;;;5052091;28;20115;-72
2022/12/08 07:23:04;;;;;;;33.38;18.92;;;12.50;99.90;;;;;;5051969;28;20567;-71
2022/12/08 07:25:29;;;;;;;34.90;18.98;;;12.60;99.90;;;;;;5052086;28;20037;-71
2022/12/08 07:27:55;;;;;;;35.40;19.35;;;12.60;99.90;;;;;;5052998;28;20029;-71
2022/12/08 07:30:21;;;;;;;31.90;19.17;;;12.60;99.90;;;;;;5056858;28;20047;-72
2022/12/08 07:32:47;;;;;;;35.13;19.00;;;12.60;99.90;;;;;;5048801;28;20115;-72
2022/12/08 07:35:13;;;;;;;31.60;18.85;;;12.60;99.90;;;;;;5055435;28;20036;-73
2022/12/08 07:37:39;;;;;;;34.83;19.33;;;12.60;99.90;;;;;;5054769;28;20028;-72
2022/12/08 07:40:06;;;;;;;33.03;18.85;;;12.60;99.90;;;;;;5053904;28;20055;-71
2022/12/08 07:42:32;;;;;;;36.17;18.50;;;12.60;99.90;;;;;;5053503;28;20048;-72
2022/12/08 07:44:59;;;;;;;32.15;17.80;;;12.60;99.90;;;;;;5059424;28;20416;-71
2022/12/08 07:47:25;;;;;;;31.60;18.13;;;12.70;99.90;;;;;;5071336;28;20032;-71
2022/12/08 07:49:51;;;;;;;30.13;17.73;;;12.70;99.90;;;;;;5058732;28;20032;-73
2022/12/08 07:52:17;;;;;;;32.58;18.80;;;12.70;99.90;;;;;;5054249;28;20075;-72
2022/12/08 07:54:44;;;;;;;32.42;18.13;;;12.70;99.90;;;;;;5053409;28;20044;-71
2022/12/08 07:57:10;;;;;;;33.30;18.85;;;12.70;99.90;;;;;;5061978;28;20041;-72
2022/12/08 07:59:36;;;;;;;36.13;19.35;;;12.70;99.90;;;;;;5058050;28;20037;-72
2022/12/08 08:02:01;;;;;;;32.90;18.02;;;12.80;99.90;;;;;;5053707;28;20052;-71
2022/12/08 08:04:27;;;;;;;34.40;18.25;;;12.80;99.90;;;;;;5056901;28;20048;-71
2022/12/08 08:06:53;;;;;;;32.22;18.33;;;12.80;99.90;;;;;;5050691;28;20044;-72
2022/12/08 08:09:19;;;;;;;34.13;17.90;;;12.80;99.90;;;;;;5053295;28;20029;-72
2022/12/08 08:11:45;;;;;;;33.13;19.27;;;12.90;99.90;;;;;;5052237;28;20055;-72
2022/12/08 08:14:11;;;;;;;30.35;18.52;;;13.00;99.90;;;;;;5050145;28;20029;-72
2022/12/08 08:16:37;;;;;;;32.72;18.60;;;13.00;99.90;;;;;;5052051;28;20082;-72
2022/12/08 08:19:03;;;;;;;31.48;18.13;;;13.10;99.90;;;;;;5050956;28;20394;-72
2022/12/08 08:21:29;;;;;;;34.63;19.48;;;13.10;99.90;;;;;;5053681;28;20044;-71
2022/12/08 08:23:55;;;;;;;32.95;20.27;;;13.20;99.90;;;;;;5056522;28;20033;-72
2022/12/08 08:26:20;;;;;;;34.47;19.17;;;13.20;99.90;;;;;;5059283;28;20055;-72
2022/12/08 08:28:47;;;;;;;32.67;19.70;;;13.10;99.90;;;;;;5065097;28;20029;-72
2022/12/08 08:31:13;;;;;;;34.83;19.42;;;13.20;99.90;;;;;;5053808;28;20098;-71
2022/12/08 08:33:41;;;;;;;35.97;20.27;;;13.30;99.90;;;;;;5055016;28;20049;-71
2022/12/08 08:36:08;;;;;;;31.63;19.77;;;13.40;99.90;;;;;;5060966;28;20499;-72
2022/12/08 08:38:35;;;;;;;;;;;13.50;99.90;;;;;;5061461;28;20040;-72
2022/12/08 08:41:07;;;;;;;31.60;18.40;;;13.60;99.90;;;;;;5054913;28;19916;-72
2022/12/08 08:43:35;;;;;;;36.33;18.73;;;13.70;99.90;;;;;;5049307;28;20048;-73
2022/12/08 08:46:01;;;;;;;35.92;19.50;;;13.80;99.90;;;;;;5053831;28;20115;-72
2022/12/08 08:48:28;;;;;;;;;;;13.90;99.90;;;;;;5055513;28;20520;-72
2022/12/08 08:50:55;;;;;;;31.05;19.77;;;13.90;99.90;;;;;;5057789;28;19962;-71
2022/12/08 08:53:21;;;;;;;34.25;19.80;;;14.00;99.90;;;;;;5050729;28;20056;-72
2022/12/08 08:55:47;;;;;;;34.75;20.13;;;14.00;99.90;;;;;;5057660;28;20120;-72
2022/12/08 08:58:13;;;;;;;31.92;20.27;;;14.20;99.90;;;;;;5051318;28;20139;-72
2022/12/08 09:00:39;;;;;;;33.80;20.98;;;14.40;99.90;;;;;;5051113;28;20041;-73
2022/12/08 09:03:04;;;;;;;32.97;20.35;;;14.70;99.90;;;;;;5048938;28;20144;-72
2022/12/08 09:05:30;;;;;;;33.05;19.13;;;14.80;99.90;;;;;;5051746;28;20029;-74
2022/12/08 09:07:56;;;;;;;31.67;21.55;;;14.80;99.90;;;;;;5053166;28;20032;-72
2022/12/08 09:10:22;;;;;;;33.55;19.05;;;14.90;99.90;;;;;;5053987;28;21437;-72
2022/12/08 09:12:48;;;;;;;32.47;18.35;;;15.00;99.90;;;;;;5050139;28;20052;-72
2022/12/08 09:15:14;;;;;;;33.92;20.45;;;15.10;99.90;;;;;;5057659;28;20033;-72
2022/12/08 09:17:40;;;;;;;37.55;21.38;;;15.30;99.90;;;;;;5059725;28;20033;-72
2022/12/08 09:20:06;;;;;;;34.85;18.88;;;15.60;99.90;;;;;;5051749;28;20051;-72
2022/12/08 09:22:33;;;;;;;33.53;20.15;;;15.80;99.90;;;;;;5052709;28;20402;-73
2022/12/08 09:25:02;;;;;;;34.00;18.60;;;16.10;99.90;;;;;;5053854;28;20416;-73
2022/12/08 09:27:28;;;;;;;34.13;19.13;;;16.50;99.90;;;;;;5068541;28;20037;-71
2022/12/08 09:29:53;;;;;;;31.30;19.58;;;16.60;99.90;;;;;;5057772;28;20043;-72
2022/12/08 09:32:19;;;;;;;31.65;19.98;;;16.80;99.90;;;;;;5053973;28;20292;-73
2022/12/08 09:34:45;;;;;;;34.30;20.40;;;17.20;99.90;;;;;;5058352;28;20069;-72
2022/12/08 09:37:11;;;;;;;32.35;19.73;;;17.20;99.90;;;;;;5060691;28;20496;-72
2022/12/08 09:39:36;;;;;;;37.53;22.88;;;17.00;99.90;;;;;;5073532;28;20124;-72
2022/12/08 09:42:05;;;;;;;36.13;21.02;;;16.90;99.90;;;;;;5057364;28;20037;-73
2022/12/08 09:44:48;;;;;;;33.50;21.35;;;16.60;99.90;;;;;;5057815;28;20091;-71
2022/12/08 09:47:23;;;;;;;34.17;19.15;;;16.80;99.90;;;;;;5054983;28;20822;-72
2022/12/08 09:50:13;;;;;;;32.42;19.25;;;17.00;99.90;;;;;;5054145;28;20037;-75
2022/12/08 09:52:57;;;;;;;32.55;19.45;;;16.80;99.90;;;;;;5052902;28;20036;-73
2022/12/08 09:55:33;;;;;;;35.65;19.83;;;16.90;99.90;;;;;;5055061;28;20091;-73
2022/12/08 09:58:03;;;;;;;35.72;19.08;;;16.70;99.90;;;;;;5058712;28;20426;-73
2022/12/08 10:00:29;;;;;;;34.47;20.33;;;16.80;99.90;;;;;;5054117;28;20068;-74
2022/12/08 10:02:56;;;;;;;33.95;18.65;;;16.80;99.90;;;;;;5057020;28;20060;-72
2022/12/08 10:05:24;;;;;;;32.72;18.50;;;16.80;99.90;;;;;;5059536;28;20044;-72
2022/12/08 10:08:08;;;;;;;32.83;19.65;;;16.70;99.90;;;;;;5056386;28;20045;-73
2022/12/08 10:10:45;;;;;;;29.95;18.42;;;16.60;99.90;;;;;;5042737;28;20426;-72
2022/12/08 10:13:38;;;;;;;34.00;20.67;;;16.40;99.90;;;;;;5054871;28;20506;-73
2022/12/08 10:16:14;;;;;;;36.13;19.85;;;16.20;99.90;;;;;;5068792;28;20668;-73
2022/12/08 10:18:41;;;;;;;34.03;19.65;;;16.10;99.90;;;;;;5054911;28;20430;-72
2022/12/08 10:21:21;;;;;;;32.55;18.55;;;15.90;99.90;;;;;;5058408;28;20344;-72
2022/12/08 10:23:54;;;;;;;35.13;19.60;;;15.90;99.90;;;;;;5054079;28;20032;-73
2022/12/08 10:26:21;;;;;;;34.08;18.83;;;15.80;99.90;;;;;;5056141;28;20514;-73
2022/12/08 10:28:47;;;;;;;33.63;19.48;;;15.50;99.90;;;;;;5045834;28;20136;-71
2022/12/08 10:31:19;;;;;;;35.70;19.73;;;15.40;99.90;;;;;;5047059;28;20376;-73
2022/12/08 10:33:48;;;;;;;33.25;20.27;;;15.20;99.90;;;;;;5074668;28;20060;-72
2022/12/08 10:36:14;;;;;;;39.47;23.98;;;15.10;99.90;;;;;;5052897;28;20033;-73
2022/12/08 10:38:40;;;;;;;34.22;19.35;;;15.00;99.90;;;;;;5058619;28;20114;-72
2022/12/08 10:41:09;;;;;;;35.08;21.35;;;15.00;99.90;;;;;;5052829;28;20029;-72
2022/12/08 10:43:42;;;;;;;35.95;20.48;;;14.90;99.90;;;;;;5062453;28;20032;-72
2022/12/08 10:46:17;;;;;;;32.47;20.50;;;15.00;99.90;;;;;;5055461;28;20044;-72
2022/12/08 10:48:54;;;;;;;37.15;20.58;;;15.00;99.90;;;;;;5062842;28;20040;-73
2022/12/08 10:51:35;;;;;;;34.83;20.73;;;14.90;99.90;;;;;;5052663;28;20064;-73
2022/12/08 10:54:02;;;;;;;35.50;23.08;;;14.90;99.90;;;;;;5053631;28;20041;-73
2022/12/08 10:56:28;;;;;;;;;;;14.80;99.90;;;;;;5057923;28;20056;-73
2022/12/08 10:59:24;;;;;;;33.80;21.08;;;14.80;99.90;;;;;;5053982;28;19917;-73
2022/12/08 11:01:54;;;;;;;36.85;21.25;;;14.80;99.90;;;;;;5039177;28;20033;-74
2022/12/08 11:04:21;;;;;;;35.75;20.98;;;14.90;99.90;;;;;;5059472;28;20075;-73
2022/12/08 11:06:48;;;;;;;;;;;14.90;99.90;;;;;;5052016;28;21554;-73
2022/12/08 11:09:16;;;;;;;41.08;23.13;;;14.80;99.90;;;;;;5056400;28;20380;-73
2022/12/08 11:11:51;;;;;;;42.53;20.67;;;14.80;99.90;;;;;;5060948;28;20376;-73
2022/12/08 11:14:48;;;;;;;40.65;21.27;;;14.80;99.90;;;;;;5053167;28;20041;-73
2022/12/08 11:17:26;;;;;;;38.45;22.33;;;14.80;99.90;;;;;;5059639;28;20040;-73
2022/12/08 11:20:11;;;;;;;40.17;23.35;;;14.70;99.90;;;;;;5059543;28;20045;-72
2022/12/08 11:22:42;;;;;;;40.88;23.23;;;14.60;99.90;;;;;;5052570;28;20059;-73
2022/12/08 11:25:17;;;;;;;40.83;24.05;;;14.60;99.90;;;;;;5053138;28;20052;-73
2022/12/08 11:27:46;;;;;;;37.95;23.60;;;14.50;99.90;;;;;;5068197;28;20025;-73
2022/12/08 11:30:12;;;;;;;43.05;25.27;;;14.50;99.90;;;;;;5053793;28;20036;-73
2022/12/08 11:32:41;;;;;;;45.65;24.25;;;14.40;99.90;;;;;;5057029;28;20044;-73
2022/12/08 11:35:17;;;;;;;47.33;24.90;;;14.40;99.90;;;;;;5052243;28;20131;-72
2022/12/08 11:37:43;;;;;;;42.10;23.95;;;14.40;99.90;;;;;;5057012;28;20506;-73
2022/12/08 11:40:39;;;;;;;44.67;24.13;;;14.50;99.90;;;;;;5055606;28;20075;-73
2022/12/08 11:43:23;;;;;;;40.28;23.40;;;14.50;99.90;;;;;;5044269;28;20496;-73
2022/12/08 11:45:56;;;;;;;37.30;22.15;;;14.60;99.90;;;;;;5068086;28;20032;-73
2022/12/08 11:48:45;;;;;;;39.38;23.73;;;14.60;99.90;;;;;;5051900;28;20897;-72
2022/12/08 11:51:22;;;;;;;39.65;22.95;;;14.50;99.90;;;;;;5055729;28;20040;-72
2022/12/08 11:54:12;;;;;;;40.42;22.50;;;14.50;99.90;;;;;;5051826;28;20060;-72
2022/12/08 11:56:51;;;;;;;38.60;22.95;;;14.60;99.90;;;;;;5051476;28;20132;-72
2022/12/08 11:59:27;;;;;;;39.45;24.33;;;14.60;99.90;;;;;;5058045;28;20037;-72
2022/12/08 12:01:53;;;;;;;42.47;24.17;;;14.50;99.90;;;;;;5044868;28;20480;-72
2022/12/08 12:04:40;;;;;;;44.55;25.25;;;14.50;99.90;;;;;;5054225;28;20587;-73
2022/12/08 12:07:21;;;;;;;38.15;23.30;;;14.40;99.90;;;;;;5053525;28;20036;-72
2022/12/08 12:09:59;;;;;;;45.53;25.08;;;14.40;99.90;;;;;;5054445;28;20033;-73
2022/12/08 12:12:43;;;;;;;41.30;24.40;;;14.40;99.90;;;;;;5069837;28;20102;-72
2022/12/08 12:15:24;;;;;;;49.88;26.00;;;14.40;99.90;;;;;;5060113;28;20025;-73
2022/12/08 12:17:55;;;;;;;44.70;24.20;;;14.40;99.90;;;;;;5056418;28;20021;-72
2022/12/08 12:20:35;;;;;;;45.22;24.02;;;14.40;99.90;;;;;;5061115;28;20406;-72
2022/12/08 12:23:43;;;;;;;45.17;25.63;;;14.40;99.90;;;;;;5055244;28;20036;-72
2022/12/08 12:26:18;;;;;;;45.90;26.75;;;14.30;99.90;;;;;;5034496;28;20041;-73
2022/12/08 12:29:07;;;;;;;44.13;26.75;;;14.20;99.90;;;;;;5036518;28;20106;-72
2022/12/08 12:31:37;;;;;;;46.28;26.08;;;14.10;99.90;;;;;;5042896;28;20084;-72
2022/12/08 12:34:25;;;;;;;47.65;27.90;;;14.10;99.90;;;;;;5032631;28;20082;-73
2022/12/08 12:36:53;;;;;;;48.90;28.10;;;13.90;99.90;;;;;;5033843;28;20510;-72
2022/12/08 12:39:30;;;;;;;46.25;26.02;;;13.80;99.90;;;;;;5032459;28;20057;-72
2022/12/08 12:41:59;;;;;;;48.72;27.92;;;13.80;99.90;;;;;;5036356;28;20041;-73
2022/12/08 12:44:45;;;;;;;51.42;28.25;;;13.80;99.90;;;;;;5049339;28;20033;-75
2022/12/08 12:47:13;;;;;;;46.60;24.55;;;13.70;99.90;;;;;;5040291;28;20041;-73
2022/12/08 12:49:39;;;;;;;49.15;28.10;;;13.70;99.90;;;;;;5034482;28;20030;-73
2022/12/08 12:52:14;;;;;;;51.47;28.83;;;13.70;99.90;;;;;;5036045;28;20087;-75